Time,TemperatureF,DewpointF,PressureIn,WindDirection,WindDirectionDegrees,WindSpeedMPH,WindSpeedGustMPH,Humidity,HourlyPrecipIn,Conditions,Clouds,dailyrainin,SolarRadiationWatts/m^2,SoftwareType,DateUTC
2013-04-24 00:00:00,41.7,24.1,-100.00,SW,215,1.1,4.5,49,0.00,,,-99.99,1.0,HOBO +U30 +Weather +,2013-04-24 06:00:00,
2013-04-24 00:05:00,41.7,24.0,-100.00,West,261,3.4,6.7,49,0.00,,,-99.99,1.0,HOBO +U30 +Weather +,2013-04-24 06:05:00,
2013-04-24 00:10:00,41.5,24.1,-100.00,WSW,247,4.0,7.4,49,0.00,,,-99.99,1.0,HOBO +U30 +Weather +,2013-04-24 06:10:00,
2013-04-24 00:15:00,41.4,24.9,-100.00,SW,222,4.5,8.9,51,0.00,,,-99.99,1.0,HOBO +U30 +Weather +,2013-04-24 06:15:00,
2013-04-24 00:20:00,41.1,25.6,-100.00,SSW,213,2.9,6.3,53,0.00,,,-99.99,1.0,HOBO +U30 +Weather +,2013-04-24 06:20:00,
2013-04-24 00:25:00,41.1,25.6,-100.00,SW,222,4.0,6.7,53,0.00,,,-99.99,1.0,HOBO +U30 +Weather +,2013-04-24 06:25:00,
2013-04-24 00:30:00,40.9,25.5,-100.00,SW,229,4.0,7.4,53,0.00,,,-99.99,1.0,HOBO +U30 +Weather +,2013-04-24 06:30:00,
2013-04-24 00:35:00,40.7,25.7,-100.00,SW,225,5.6,8.5,54,0.00,,,-99.99,1.0,HOBO +U30 +Weather +,2013-04-24 06:35:00,
2013-04-24 00:40:00,40.4,26.0,-100.00,SW,216,6.3,9.6,56,0.00,,,-99.99,1.0,HOBO +U30 +Weather +,2013-04-24 06:40:00,
2013-04-24 00:45:00,40.2,26.1,-100.00,SSW,209,5.6,8.5,56,0.00,,,-99.99,1.0,HOBO +U30 +Weather +,2013-04-24 06:45:00,
2013-04-24 00:50:00,40.1,26.2,-100.00,SSW,209,4.5,7.8,57,0.00,,,-99.99,1.0,HOBO +U30 +Weather +,2013-04-24 06:50:00,
2013-04-24 00:55:00,39.8,26.4,-100.00,SSW,205,5.1,7.4,58,0.00,,,-99.99,1.0,HOBO +U30 +Weather +,2013-04-24 06:55:00,
2013-04-24 01:00:00,39.5,26.4,-100.00,SSW,204,4.5,8.9,59,0.00,,,-99.99,1.0,HOBO +U30 +Weather +,2013-04-24 07:00:00,
2013-04-24 01:05:00,39.4,26.4,-100.00,SSW,208,5.1,8.9,59,0.00,,,-99.99,1.0,HOBO +U30 +Weather +,2013-04-24 07:05:00,
2013-04-24 01:10:00,39.2,26.2,-100.00,SW,219,6.3,9.6,59,0.00,,,-99.99,1.0,HOBO +U30 +Weather +,2013-04-24 07:10:00,
2013-04-24 01:15:00,39.1,26.5,-100.00,SW,215,6.3,9.6,60,0.00,,,-99.99,1.0,HOBO +U30 +Weather +,2013-04-24 07:15:00,
2013-04-24 01:20:00,39.2,26.2,-100.00,SW,229,4.0,7.4,59,0.00,,,-99.99,1.0,HOBO +U30 +Weather +,2013-04-24 07:20:00,
2013-04-24 01:25:00,39.2,25.9,-100.00,SW,236,4.5,6.7,58,0.00,,,-99.99,1.0,HOBO +U30 +Weather +,2013-04-24 07:25:00,
2013-04-24 01:30:00,39.2,25.9,-100.00,SW,232,4.5,7.4,58,0.00,,,-99.99,1.0,HOBO +U30 +Weather +,2013-04-24 07:30:00,
2013-04-24 01:35:00,39.4,25.9,-100.00,SW,230,4.0,6.3,58,0.00,,,-99.99,1.0,HOBO +U30 +Weather +,2013-04-24 07:35:00,
2013-04-24 01:40:00,39.4,25.8,-100.00,SW,227,3.4,7.4,58,0.00,,,-99.99,1.0,HOBO +U30 +Weather +,2013-04-24 07:40:00,
2013-04-24 01:45:00,39.4,25.9,-100.00,SW,229,3.4,7.8,58,0.00,,,-99.99,1.0,HOBO +U30 +Weather +,2013-04-24 07:45:00,
2013-04-24 01:50:00,39.5,26.0,-100.00,WSW,240,5.6,8.9,58,0.00,,,-99.99,1.0,HOBO +U30 +Weather +,2013-04-24 07:50:00,
2013-04-24 01:55:00,39.5,26.0,-100.00,WSW,244,4.5,8.5,58,0.00,,,-99.99,1.0,HOBO +U30 +Weather +,2013-04-24 07:55:00,
2013-04-24 02:00:00,39.6,26.1,-100.00,WSW,257,5.1,7.8,58,0.00,,,-99.99,1.0,HOBO +U30 +Weather +,2013-04-24 08:00:00,
2013-04-24 02:05:00,39.6,26.2,-100.00,WSW,254,4.5,8.5,58,0.00,,,-99.99,1.0,HOBO +U30 +Weather +,2013-04-24 08:05:00,
2013-04-24 02:10:00,39.7,26.3,-100.00,SW,234,4.0,7.4,58,0.00,,,-99.99,1.0,HOBO +U30 +Weather +,2013-04-24 08:10:00,
2013-04-24 02:15:00,39.7,26.3,-100.00,SW,230,4.5,7.4,58,0.00,,,-99.99,1.0,HOBO +U30 +Weather +,2013-04-24 08:15:00,
2013-04-24 02:20:00,39.5,26.3,-100.00,SW,230,5.1,7.4,58,0.00,,,-99.99,1.0,HOBO +U30 +Weather +,2013-04-24 08:20:00,
2013-04-24 02:25:00,39.5,26.4,-100.00,WSW,244,5.6,8.5,58,0.00,,,-99.99,1.0,HOBO +U30 +Weather +,2013-04-24 08:25:00,
2013-04-24 02:30:00,39.5,26.4,-100.00,WSW,250,5.1,8.5,59,0.00,,,-99.99,1.0,HOBO +U30 +Weather +,2013-04-24 08:30:00,
2013-04-24 02:35:00,39.5,26.5,-100.00,WSW,241,5.6,8.9,59,0.00,,,-99.99,1.0,HOBO +U30 +Weather +,2013-04-24 08:35:00,
2013-04-24 02:40:00,39.5,26.6,-100.00,WSW,256,4.5,8.5,59,0.00,,,-99.99,1.0,HOBO +U30 +Weather +,2013-04-24 08:40:00,
2013-04-24 02:45:00,39.5,26.7,-100.00,West,268,4.0,7.4,59,0.00,,,-99.99,1.0,HOBO +U30 +Weather +,2013-04-24 08:45:00,
2013-04-24 02:50:00,39.5,26.7,-100.00,West,268,2.9,6.7,59,0.00,,,-99.99,1.0,HOBO +U30 +Weather +,2013-04-24 08:50:00,
2013-04-24 02:55:00,39.4,26.8,-100.00,NW,326,5.1,8.9,60,0.00,,,-99.99,1.0,HOBO +U30 +Weather +,2013-04-24 08:55:00,
2013-04-24 03:00:00,38.1,26.9,-100.00,North,351,9.6,17.4,63,0.00,,,-99.99,1.0,HOBO +U30 +Weather +,2013-04-24 09:00:00,
2013-04-24 03:05:00,38.7,26.9,-100.00,NNW,336,11.2,19.2,62,0.00,,,-99.99,1.0,HOBO +U30 +Weather +,2013-04-24 09:05:00,
2013-04-24 03:10:00,39.0,26.3,-100.00,NNW,330,10.7,17.0,60,0.00,,,-99.99,1.0,HOBO +U30 +Weather +,2013-04-24 09:10:00,
2013-04-24 03:15:00,38.8,26.2,-100.00,NNW,338,10.1,15.2,60,0.00,,,-99.99,1.0,HOBO +U30 +Weather +,2013-04-24 09:15:00,
2013-04-24 03:20:00,38.6,26.5,-100.00,North,354,7.8,15.2,61,0.00,,,-99.99,1.0,HOBO +U30 +Weather +,2013-04-24 09:20:00,
2013-04-24 03:25:00,37.4,27.6,-100.00,North,11,14.1,21.5,67,0.00,,,-99.99,1.0,HOBO +U30 +Weather +,2013-04-24 09:25:00,
2013-04-24 03:30:00,36.6,28.2,-100.00,North,0,11.2,19.7,71,0.00,,,-99.99,1.0,HOBO +U30 +Weather +,2013-04-24 09:30:00,
2013-04-24 03:35:00,36.0,29.2,-100.00,North,0,11.9,18.1,76,0.00,,,-99.99,1.0,HOBO +U30 +Weather +,2013-04-24 09:35:00,
2013-04-24 03:40:00,35.7,29.6,-100.00,North,3,9.6,14.5,78,0.00,,,-99.99,1.0,HOBO +U30 +Weather +,2013-04-24 09:40:00,
2013-04-24 03:45:00,35.5,29.8,-100.00,North,355,6.7,11.9,79,0.00,,,-99.99,1.0,HOBO +U30 +Weather +,2013-04-24 09:45:00,
2013-04-24 03:50:00,35.3,29.4,-100.00,North,352,6.7,10.7,79,0.00,,,-99.99,1.0,HOBO +U30 +Weather +,2013-04-24 09:50:00,
2013-04-24 03:55:00,34.9,28.9,-100.00,North,355,9.6,16.3,78,0.00,,,-99.99,1.0,HOBO +U30 +Weather +,2013-04-24 09:55:00,
2013-04-24 04:00:00,34.8,28.9,-100.00,NNW,347,8.9,13.0,78,0.00,,,-99.99,1.0,HOBO +U30 +Weather +,2013-04-24 10:00:00,
2013-04-24 04:05:00,34.7,28.7,-100.00,North,352,7.4,14.1,78,0.00,,,-99.99,1.0,HOBO +U30 +Weather +,2013-04-24 10:05:00,
2013-04-24 04:10:00,34.7,28.8,-100.00,North,355,7.4,13.4,78,0.00,,,-99.99,1.0,HOBO +U30 +Weather +,2013-04-24 10:10:00,
2013-04-24 04:15:00,34.6,28.8,-100.00,NNW,341,6.7,10.1,79,0.00,,,-99.99,1.0,HOBO +U30 +Weather +,2013-04-24 10:15:00,
2013-04-24 04:20:00,34.5,29.0,-100.00,NNW,345,6.7,10.7,80,0.00,,,-99.99,1.0,HOBO +U30 +Weather +,2013-04-24 10:20:00,
2013-04-24 04:25:00,34.0,30.0,-100.00,NNW,344,8.5,17.0,84,0.00,,,-99.99,1.0,HOBO +U30 +Weather +,2013-04-24 10:25:00,
2013-04-24 04:30:00,33.8,30.4,-100.00,North,355,5.6,10.1,87,0.00,,,-99.99,1.0,HOBO +U30 +Weather +,2013-04-24 10:30:00,
2013-04-24 04:35:00,33.9,30.0,-100.00,NNW,337,5.1,10.7,85,0.00,,,-99.99,1.0,HOBO +U30 +Weather +,2013-04-24 10:35:00,
2013-04-24 04:40:00,34.0,30.1,-100.00,NNW,337,3.4,7.4,85,0.00,,,-99.99,1.0,HOBO +U30 +Weather +,2013-04-24 10:40:00,
2013-04-24 04:45:00,33.8,29.9,-100.00,NNW,337,4.5,9.6,85,0.00,,,-99.99,1.0,HOBO +U30 +Weather +,2013-04-24 10:45:00,
2013-04-24 04:50:00,33.9,30.0,-100.00,NW,313,3.4,9.6,85,0.00,,,-99.99,1.0,HOBO +U30 +Weather +,2013-04-24 10:50:00,
2013-04-24 04:55:00,33.9,30.1,-100.00,WNW,288,2.2,6.7,85,0.00,,,-99.99,1.0,HOBO +U30 +Weather +,2013-04-24 10:55:00,
2013-04-24 05:00:00,34.1,30.4,-100.00,WSW,243,2.9,5.1,86,0.00,,,-99.99,1.0,HOBO +U30 +Weather +,2013-04-24 11:00:00,
2013-04-24 05:05:00,34.3,30.2,-100.00,WSW,239,5.6,8.9,84,0.00,,,-99.99,1.0,HOBO +U30 +Weather +,2013-04-24 11:05:00,
2013-04-24 05:10:00,34.4,30.2,-100.00,WSW,243,5.6,8.9,84,0.00,,,-99.99,1.0,HOBO +U30 +Weather +,2013-04-24 11:10:00,
2013-04-24 05:15:00,34.5,30.2,-100.00,WSW,241,4.5,8.5,84,0.00,,,-99.99,1.0,HOBO +U30 +Weather +,2013-04-24 11:15:00,
2013-04-24 05:20:00,34.8,30.5,-100.00,SW,215,3.4,7.4,84,0.00,,,-99.99,1.0,HOBO +U30 +Weather +,2013-04-24 11:20:00,
2013-04-24 05:25:00,34.7,30.4,-100.00,SSW,212,5.1,8.5,84,0.00,,,-99.99,1.0,HOBO +U30 +Weather +,2013-04-24 11:25:00,
2013-04-24 05:30:00,34.2,30.2,-100.00,SW,215,6.7,11.2,85,0.00,,,-99.99,1.0,HOBO +U30 +Weather +,2013-04-24 11:30:00,
2013-04-24 05:35:00,34.2,30.4,-100.00,SW,236,5.1,10.1,85,0.00,,,-99.99,1.0,HOBO +U30 +Weather +,2013-04-24 11:35:00,
2013-04-24 05:40:00,34.1,30.3,-100.00,WSW,243,3.4,5.6,85,0.00,,,-99.99,1.0,HOBO +U30 +Weather +,2013-04-24 11:40:00,
2013-04-24 05:45:00,34.1,30.3,-100.00,West,264,1.8,6.7,85,0.00,,,-99.99,1.0,HOBO +U30 +Weather +,2013-04-24 11:45:00,
2013-04-24 05:50:00,34.3,30.5,-100.00,WSW,241,2.9,5.6,85,0.00,,,-99.99,1.0,HOBO +U30 +Weather +,2013-04-24 11:50:00,
2013-04-24 05:55:00,34.3,30.3,-100.00,SSW,206,4.0,6.7,84,0.00,,,-99.99,1.0,HOBO +U30 +Weather +,2013-04-24 11:55:00,
2013-04-24 06:00:00,34.5,30.4,-100.00,SW,229,3.4,6.3,85,0.00,,,-99.99,1.0,HOBO +U30 +Weather +,2013-04-24 12:00:00,
2013-04-24 06:05:00,34.4,30.3,-100.00,SSW,205,4.0,7.4,84,0.00,,,-99.99,1.0,HOBO +U30 +Weather +,2013-04-24 12:05:00,
2013-04-24 06:10:00,34.3,30.6,-100.00,SSW,204,2.9,8.5,86,0.00,,,-99.99,1.0,HOBO +U30 +Weather +,2013-04-24 12:10:00,
2013-04-24 06:15:00,34.2,30.5,-100.00,SSW,197,3.4,5.6,86,0.00,,,-99.99,2.0,HOBO +U30 +Weather +,2013-04-24 12:15:00,
2013-04-24 06:20:00,34.3,30.7,-100.00,SSW,204,2.2,5.1,86,0.00,,,-99.99,3.0,HOBO +U30 +Weather +,2013-04-24 12:20:00,
2013-04-24 06:25:00,34.6,30.7,-100.00,SW,222,1.8,6.3,85,0.00,,,-99.99,7.0,HOBO +U30 +Weather +,2013-04-24 12:25:00,
2013-04-24 06:30:00,34.6,30.5,-100.00,WSW,247,4.5,7.4,84,0.00,,,-99.99,9.0,HOBO +U30 +Weather +,2013-04-24 12:30:00,
2013-04-24 06:35:00,34.9,30.8,-100.00,SW,216,3.4,6.3,84,0.00,,,-99.99,12.0,HOBO +U30 +Weather +,2013-04-24 12:35:00,
2013-04-24 06:40:00,34.5,30.5,-100.00,SSW,209,6.3,9.6,85,0.00,,,-99.99,17.0,HOBO +U30 +Weather +,2013-04-24 12:40:00,
2013-04-24 06:45:00,34.7,30.5,-100.00,SW,219,5.6,8.9,84,0.00,,,-99.99,22.0,HOBO +U30 +Weather +,2013-04-24 12:45:00,
2013-04-24 06:50:00,34.8,30.5,-100.00,SW,222,2.9,6.3,84,0.00,,,-99.99,32.0,HOBO +U30 +Weather +,2013-04-24 12:50:00,
2013-04-24 06:55:00,34.8,30.5,-100.00,SSW,211,4.0,7.4,84,0.00,,,-99.99,39.0,HOBO +U30 +Weather +,2013-04-24 12:55:00,
2013-04-24 07:00:00,34.9,30.5,-100.00,SSW,197,2.9,5.1,83,0.00,,,-99.99,42.0,HOBO +U30 +Weather +,2013-04-24 13:00:00,
2013-04-24 07:05:00,34.9,30.5,-100.00,SSW,201,5.1,7.4,83,0.00,,,-99.99,49.0,HOBO +U30 +Weather +,2013-04-24 13:05:00,
2013-04-24 07:10:00,35.2,30.7,-100.00,SSW,197,5.6,7.8,83,0.00,,,-99.99,53.0,HOBO +U30 +Weather +,2013-04-24 13:10:00,
2013-04-24 07:15:00,35.3,30.6,-100.00,South,191,6.3,10.7,82,0.00,,,-99.99,57.0,HOBO +U30 +Weather +,2013-04-24 13:15:00,
2013-04-24 07:20:00,35.6,30.7,-100.00,SSW,213,5.6,8.9,81,0.00,,,-99.99,61.0,HOBO +U30 +Weather +,2013-04-24 13:20:00,
2013-04-24 07:25:00,35.8,30.6,-100.00,SW,234,4.5,7.8,81,0.00,,,-99.99,61.0,HOBO +U30 +Weather +,2013-04-24 13:25:00,
2013-04-24 07:30:00,35.9,30.6,-100.00,WSW,250,4.0,8.9,80,0.00,,,-99.99,67.0,HOBO +U30 +Weather +,2013-04-24 13:30:00,
2013-04-24 07:35:00,36.2,30.7,-100.00,West,279,2.2,8.5,80,0.00,,,-99.99,73.0,HOBO +U30 +Weather +,2013-04-24 13:35:00,
2013-04-24 07:40:00,36.3,30.5,-100.00,West,263,4.0,8.9,79,0.00,,,-99.99,73.0,HOBO +U30 +Weather +,2013-04-24 13:40:00,
2013-04-24 07:45:00,36.4,30.6,-100.00,WSW,250,2.9,5.6,79,0.00,,,-99.99,102.0,HOBO +U30 +Weather +,2013-04-24 13:45:00,
2013-04-24 07:50:00,36.6,30.6,-100.00,WSW,244,6.3,10.1,78,0.00,,,-99.99,134.0,HOBO +U30 +Weather +,2013-04-24 13:50:00,
2013-04-24 07:55:00,36.8,30.7,-100.00,SW,236,3.4,6.7,78,0.00,,,-99.99,94.0,HOBO +U30 +Weather +,2013-04-24 13:55:00,
2013-04-24 08:00:00,36.4,30.6,-100.00,SW,215,5.1,8.5,79,0.00,,,-99.99,79.0,HOBO +U30 +Weather +,2013-04-24 14:00:00,
2013-04-24 08:05:00,36.6,30.6,-100.00,SW,230,4.5,7.8,78,0.00,,,-99.99,89.0,HOBO +U30 +Weather +,2013-04-24 14:05:00,
2013-04-24 08:10:00,37.4,30.0,-100.00,West,265,5.6,14.1,74,0.00,,,-99.99,71.0,HOBO +U30 +Weather +,2013-04-24 14:10:00,
2013-04-24 08:15:00,37.2,30.3,-100.00,SW,225,6.7,11.9,75,0.00,,,-99.99,89.0,HOBO +U30 +Weather +,2013-04-24 14:15:00,
2013-04-24 08:20:00,37.2,30.7,-100.00,SSW,213,7.4,11.9,77,0.00,,,-99.99,131.0,HOBO +U30 +Weather +,2013-04-24 14:20:00,
2013-04-24 08:25:00,36.9,30.8,-100.00,SSW,212,7.8,11.2,78,0.00,,,-99.99,153.0,HOBO +U30 +Weather +,2013-04-24 14:25:00,
2013-04-24 08:30:00,37.1,31.0,-100.00,SW,218,6.7,11.2,78,0.00,,,-99.99,169.0,HOBO +U30 +Weather +,2013-04-24 14:30:00,
2013-04-24 08:35:00,37.1,30.8,-100.00,WSW,243,5.1,8.5,77,0.00,,,-99.99,188.0,HOBO +U30 +Weather +,2013-04-24 14:35:00,
2013-04-24 08:40:00,37.7,31.2,-100.00,SW,234,5.6,8.5,77,0.00,,,-99.99,226.0,HOBO +U30 +Weather +,2013-04-24 14:40:00,
2013-04-24 08:45:00,38.9,31.1,-100.00,SW,230,3.4,7.4,73,0.00,,,-99.99,306.0,HOBO +U30 +Weather +,2013-04-24 14:45:00,
2013-04-24 08:50:00,38.6,30.8,-100.00,WSW,254,4.5,7.4,73,0.00,,,-99.99,209.0,HOBO +U30 +Weather +,2013-04-24 14:50:00,
2013-04-24 08:55:00,39.2,31.3,-100.00,WSW,243,4.0,7.8,73,0.00,,,-99.99,216.0,HOBO +U30 +Weather +,2013-04-24 14:55:00,
2013-04-24 09:00:00,40.0,31.1,-100.00,SW,215,2.2,6.7,70,0.00,,,-99.99,221.0,HOBO +U30 +Weather +,2013-04-24 15:00:00,
2013-04-24 09:05:00,41.1,31.7,-100.00,WSW,251,2.9,5.6,68,0.00,,,-99.99,266.0,HOBO +U30 +Weather +,2013-04-24 15:05:00,
2013-04-24 09:10:00,41.4,30.0,-100.00,West,275,5.6,10.1,63,0.00,,,-99.99,276.0,HOBO +U30 +Weather +,2013-04-24 15:10:00,
2013-04-24 09:15:00,41.3,29.4,-100.00,WNW,293,6.7,13.0,62,0.00,,,-99.99,188.0,HOBO +U30 +Weather +,2013-04-24 15:15:00,
2013-04-24 09:20:00,41.3,29.5,-100.00,West,277,8.9,15.9,62,0.00,,,-99.99,173.0,HOBO +U30 +Weather +,2013-04-24 15:20:00,
2013-04-24 09:25:00,41.4,29.6,-100.00,West,274,6.3,14.1,62,0.00,,,-99.99,257.0,HOBO +U30 +Weather +,2013-04-24 15:25:00,
2013-04-24 09:30:00,41.4,29.4,-100.00,West,260,6.3,11.2,62,0.00,,,-99.99,218.0,HOBO +U30 +Weather +,2013-04-24 15:30:00,
2013-04-24 09:35:00,42.2,29.4,-100.00,West,267,5.1,8.9,60,0.00,,,-99.99,188.0,HOBO +U30 +Weather +,2013-04-24 15:35:00,
2013-04-24 09:40:00,42.6,29.4,-100.00,West,277,3.4,7.8,59,0.00,,,-99.99,283.0,HOBO +U30 +Weather +,2013-04-24 15:40:00,
2013-04-24 09:45:00,43.3,28.2,-100.00,WNW,285,6.3,13.0,55,0.00,,,-99.99,257.0,HOBO +U30 +Weather +,2013-04-24 15:45:00,
2013-04-24 09:50:00,43.8,27.6,-100.00,West,277,6.3,10.7,52,0.00,,,-99.99,248.0,HOBO +U30 +Weather +,2013-04-24 15:50:00,
2013-04-24 09:55:00,43.1,27.7,-100.00,WNW,285,6.7,12.3,54,0.00,,,-99.99,257.0,HOBO +U30 +Weather +,2013-04-24 15:55:00,
2013-04-24 10:00:00,43.5,28.3,-100.00,WNW,302,6.3,10.1,54,0.00,,,-99.99,176.0,HOBO +U30 +Weather +,2013-04-24 16:00:00,
2013-04-24 10:05:00,44.4,28.9,-100.00,WNW,284,4.5,11.9,54,0.00,,,-99.99,159.0,HOBO +U30 +Weather +,2013-04-24 16:05:00,
2013-04-24 10:10:00,45.0,29.9,-100.00,West,263,6.3,11.9,55,0.00,,,-99.99,784.0,HOBO +U30 +Weather +,2013-04-24 16:10:00,
2013-04-24 10:15:00,43.7,30.2,-100.00,SW,216,7.8,11.9,58,0.00,,,-99.99,689.0,HOBO +U30 +Weather +,2013-04-24 16:15:00,
2013-04-24 10:20:00,43.3,29.8,-100.00,SSW,209,7.8,11.9,58,0.00,,,-99.99,243.0,HOBO +U30 +Weather +,2013-04-24 16:20:00,
2013-04-24 10:25:00,43.7,30.1,-100.00,SSW,211,7.4,11.9,58,0.00,,,-99.99,443.0,HOBO +U30 +Weather +,2013-04-24 16:25:00,
2013-04-24 10:30:00,43.5,29.0,-100.00,SW,232,6.3,10.7,56,0.00,,,-99.99,197.0,HOBO +U30 +Weather +,2013-04-24 16:30:00,
2013-04-24 10:35:00,44.4,29.0,-100.00,SW,234,6.7,13.0,54,0.00,,,-99.99,254.0,HOBO +U30 +Weather +,2013-04-24 16:35:00,
2013-04-24 10:40:00,44.8,27.5,-100.00,West,267,5.1,13.4,50,0.00,,,-99.99,379.0,HOBO +U30 +Weather +,2013-04-24 16:40:00,
2013-04-24 10:45:00,45.1,28.4,-100.00,West,277,7.4,15.2,51,0.00,,,-99.99,358.0,HOBO +U30 +Weather +,2013-04-24 16:45:00,
2013-04-24 10:50:00,45.8,22.1,-100.00,WNW,293,9.6,19.2,38,0.00,,,-99.99,306.0,HOBO +U30 +Weather +,2013-04-24 16:50:00,
2013-04-24 10:55:00,47.4,21.4,-100.00,WNW,298,7.8,18.6,35,0.00,,,-99.99,412.0,HOBO +U30 +Weather +,2013-04-24 16:55:00,
2013-04-24 11:00:00,47.4,19.4,-100.00,WNW,295,10.1,20.4,32,0.00,,,-99.99,713.0,HOBO +U30 +Weather +,2013-04-24 17:00:00,
2013-04-24 11:05:00,48.1,19.2,-100.00,WNW,296,9.6,21.9,31,0.00,,,-99.99,649.0,HOBO +U30 +Weather +,2013-04-24 17:05:00,
2013-04-24 11:10:00,47.5,19.5,-100.00,WNW,298,14.5,24.2,32,0.00,,,-99.99,751.0,HOBO +U30 +Weather +,2013-04-24 17:10:00,
2013-04-24 11:15:00,48.5,20.4,-100.00,WNW,289,10.7,20.8,32,0.00,,,-99.99,801.0,HOBO +U30 +Weather +,2013-04-24 17:15:00,
2013-04-24 11:20:00,49.0,19.3,-100.00,NW,310,13.0,25.3,30,0.00,,,-99.99,802.0,HOBO +U30 +Weather +,2013-04-24 17:20:00,
2013-04-24 11:25:00,48.7,20.5,-100.00,NW,307,13.0,20.4,32,0.00,,,-99.99,796.0,HOBO +U30 +Weather +,2013-04-24 17:25:00,
2013-04-24 11:30:00,48.5,19.8,-100.00,NW,305,13.0,24.2,31,0.00,,,-99.99,848.0,HOBO +U30 +Weather +,2013-04-24 17:30:00,
2013-04-24 11:35:00,51.1,21.7,-100.00,NW,306,10.1,20.4,31,0.00,,,-99.99,809.0,HOBO +U30 +Weather +,2013-04-24 17:35:00,
2013-04-24 11:40:00,48.8,20.5,-100.00,NW,310,10.7,19.7,32,0.00,,,-99.99,336.0,HOBO +U30 +Weather +,2013-04-24 17:40:00,
2013-04-24 11:45:00,50.1,21.0,-100.00,WNW,298,10.7,20.4,31,0.00,,,-99.99,439.0,HOBO +U30 +Weather +,2013-04-24 17:45:00,
2013-04-24 11:50:00,48.3,20.6,-100.00,WNW,286,10.7,19.2,33,0.00,,,-99.99,304.0,HOBO +U30 +Weather +,2013-04-24 17:50:00,
2013-04-24 11:55:00,48.1,20.7,-100.00,WNW,295,9.6,17.4,33,0.00,,,-99.99,207.0,HOBO +U30 +Weather +,2013-04-24 17:55:00,
2013-04-24 12:00:00,48.6,17.5,-100.00,WNW,289,15.2,32.2,28,0.00,,,-99.99,388.0,HOBO +U30 +Weather +,2013-04-24 18:00:00,
2013-04-24 12:05:00,48.8,16.9,-100.00,NW,307,15.9,23.7,27,0.00,,,-99.99,267.0,HOBO +U30 +Weather +,2013-04-24 18:05:00,
2013-04-24 12:10:00,48.0,16.7,-100.00,NW,309,16.3,27.5,28,0.00,,,-99.99,199.0,HOBO +U30 +Weather +,2013-04-24 18:10:00,
2013-04-24 12:15:00,50.5,18.4,-100.00,NW,316,15.2,28.2,27,0.00,,,-99.99,827.0,HOBO +U30 +Weather +,2013-04-24 18:15:00,
2013-04-24 12:20:00,51.4,19.0,-100.00,NW,312,10.1,21.9,27,0.00,,,-99.99,439.0,HOBO +U30 +Weather +,2013-04-24 18:20:00,
2013-04-24 12:25:00,48.3,17.8,-100.00,NNW,329,17.4,23.0,29,0.00,,,-99.99,254.0,HOBO +U30 +Weather +,2013-04-24 18:25:00,
2013-04-24 12:30:00,49.3,18.5,-100.00,NW,312,13.0,20.8,29,0.00,,,-99.99,591.0,HOBO +U30 +Weather +,2013-04-24 18:30:00,
2013-04-24 12:35:00,49.5,20.0,-100.00,WNW,286,11.2,21.5,30,0.00,,,-99.99,621.0,HOBO +U30 +Weather +,2013-04-24 18:35:00,
2013-04-24 12:40:00,50.0,19.6,-100.00,WNW,292,13.0,24.8,29,0.00,,,-99.99,337.0,HOBO +U30 +Weather +,2013-04-24 18:40:00,
2013-04-24 12:45:00,49.8,18.8,-100.00,WNW,296,17.0,28.6,28,0.00,,,-99.99,379.0,HOBO +U30 +Weather +,2013-04-24 18:45:00,
2013-04-24 12:50:00,49.2,17.6,-100.00,NW,309,14.5,24.2,28,0.00,,,-99.99,301.0,HOBO +U30 +Weather +,2013-04-24 18:50:00,
2013-04-24 12:55:00,49.5,17.9,-100.00,NW,305,13.0,23.7,28,0.00,,,-99.99,404.0,HOBO +U30 +Weather +,2013-04-24 18:55:00,
2013-04-24 13:00:00,50.9,18.8,-100.00,WNW,288,9.6,19.7,27,0.00,,,-99.99,673.0,HOBO +U30 +Weather +,2013-04-24 19:00:00,
2013-04-24 13:05:00,50.4,18.7,-100.00,West,278,11.9,24.2,28,0.00,,,-99.99,337.0,HOBO +U30 +Weather +,2013-04-24 19:05:00,
2013-04-24 13:10:00,50.8,17.9,-100.00,WNW,300,12.3,24.2,26,0.00,,,-99.99,361.0,HOBO +U30 +Weather +,2013-04-24 19:10:00,
2013-04-24 13:15:00,50.7,19.6,-100.00,WNW,292,17.4,27.1,28,0.00,,,-99.99,923.0,HOBO +U30 +Weather +,2013-04-24 19:15:00,
2013-04-24 13:20:00,51.0,19.0,-100.00,NW,314,11.9,21.9,27,0.00,,,-99.99,468.0,HOBO +U30 +Weather +,2013-04-24 19:20:00,
2013-04-24 13:25:00,51.0,19.5,-100.00,NW,306,14.5,25.3,28,0.00,,,-99.99,887.0,HOBO +U30 +Weather +,2013-04-24 19:25:00,
2013-04-24 13:30:00,51.6,18.7,-100.00,NW,316,14.1,25.9,26,0.00,,,-99.99,794.0,HOBO +U30 +Weather +,2013-04-24 19:30:00,
2013-04-24 13:35:00,52.7,17.0,-100.00,WNW,296,10.7,20.8,24,0.00,,,-99.99,837.0,HOBO +U30 +Weather +,2013-04-24 19:35:00,
2013-04-24 13:40:00,52.6,17.5,-100.00,NW,305,9.6,21.5,24,0.00,,,-99.99,846.0,HOBO +U30 +Weather +,2013-04-24 19:40:00,
2013-04-24 13:45:00,52.4,20.3,-100.00,NW,316,11.2,20.8,28,0.00,,,-99.99,924.0,HOBO +U30 +Weather +,2013-04-24 19:45:00,
2013-04-24 13:50:00,53.5,20.3,-100.00,WNW,291,10.1,18.6,26,0.00,,,-99.99,306.0,HOBO +U30 +Weather +,2013-04-24 19:50:00,
2013-04-24 13:55:00,51.9,19.4,-100.00,WNW,286,15.9,25.3,27,0.00,,,-99.99,838.0,HOBO +U30 +Weather +,2013-04-24 19:55:00,
2013-04-24 14:00:00,52.5,20.0,-100.00,WNW,288,9.6,18.6,27,0.00,,,-99.99,746.0,HOBO +U30 +Weather +,2013-04-24 20:00:00,
2013-04-24 14:05:00,51.5,18.3,-100.00,WNW,299,12.3,19.2,26,0.00,,,-99.99,799.0,HOBO +U30 +Weather +,2013-04-24 20:05:00,
2013-04-24 14:10:00,52.2,18.7,-100.00,WNW,286,13.4,22.6,26,0.00,,,-99.99,812.0,HOBO +U30 +Weather +,2013-04-24 20:10:00,
2013-04-24 14:15:00,53.0,19.3,-100.00,WNW,295,11.2,20.8,26,0.00,,,-99.99,806.0,HOBO +U30 +Weather +,2013-04-24 20:15:00,
2013-04-24 14:20:00,53.0,19.9,-100.00,WNW,292,10.7,20.4,27,0.00,,,-99.99,407.0,HOBO +U30 +Weather +,2013-04-24 20:20:00,
2013-04-24 14:25:00,52.4,19.8,-100.00,West,267,8.9,17.0,27,0.00,,,-99.99,878.0,HOBO +U30 +Weather +,2013-04-24 20:25:00,
2013-04-24 14:30:00,53.6,20.7,-100.00,WNW,289,9.6,16.3,27,0.00,,,-99.99,749.0,HOBO +U30 +Weather +,2013-04-24 20:30:00,
2013-04-24 14:35:00,53.5,21.4,-100.00,NW,317,13.0,21.9,28,0.00,,,-99.99,887.0,HOBO +U30 +Weather +,2013-04-24 20:35:00,
2013-04-24 14:40:00,52.6,21.1,-100.00,NW,307,8.9,18.1,28,0.00,,,-99.99,284.0,HOBO +U30 +Weather +,2013-04-24 20:40:00,
2013-04-24 14:45:00,53.3,21.4,-100.00,WNW,295,6.3,11.9,28,0.00,,,-99.99,899.0,HOBO +U30 +Weather +,2013-04-24 20:45:00,
2013-04-24 14:50:00,53.2,21.3,-100.00,WNW,299,6.3,14.1,28,0.00,,,-99.99,966.0,HOBO +U30 +Weather +,2013-04-24 20:50:00,
2013-04-24 14:55:00,52.9,21.7,-100.00,NW,310,6.7,15.9,29,0.00,,,-99.99,453.0,HOBO +U30 +Weather +,2013-04-24 20:55:00,
2013-04-24 15:00:00,52.5,21.5,-100.00,WNW,289,8.9,16.3,29,0.00,,,-99.99,217.0,HOBO +U30 +Weather +,2013-04-24 21:00:00,
2013-04-24 15:05:00,54.8,22.6,-100.00,WNW,289,3.4,8.5,28,0.00,,,-99.99,297.0,HOBO +U30 +Weather +,2013-04-24 21:05:00,
2013-04-24 15:10:00,54.0,21.9,-100.00,NW,321,8.9,18.1,28,0.00,,,-99.99,826.0,HOBO +U30 +Weather +,2013-04-24 21:10:00,
2013-04-24 15:15:00,55.5,22.2,-100.00,WNW,299,5.1,13.0,27,0.00,,,-99.99,329.0,HOBO +U30 +Weather +,2013-04-24 21:15:00,
2013-04-24 15:20:00,54.1,21.9,-100.00,WNW,295,8.5,14.5,28,0.00,,,-99.99,349.0,HOBO +U30 +Weather +,2013-04-24 21:20:00,
2013-04-24 15:25:00,54.0,21.4,-100.00,NW,326,9.6,14.5,27,0.00,,,-99.99,296.0,HOBO +U30 +Weather +,2013-04-24 21:25:00,
2013-04-24 15:30:00,54.6,21.5,-100.00,NNW,331,6.3,12.3,27,0.00,,,-99.99,391.0,HOBO +U30 +Weather +,2013-04-24 21:30:00,
2013-04-24 15:35:00,55.5,20.5,-100.00,WNW,282,3.4,11.9,25,0.00,,,-99.99,311.0,HOBO +U30 +Weather +,2013-04-24 21:35:00,
2013-04-24 15:40:00,56.2,20.4,-100.00,WNW,295,5.1,15.2,24,0.00,,,-99.99,754.0,HOBO +U30 +Weather +,2013-04-24 21:40:00,
2013-04-24 15:45:00,56.3,20.5,-100.00,West,275,10.7,19.2,24,0.00,,,-99.99,732.0,HOBO +U30 +Weather +,2013-04-24 21:45:00,
2013-04-24 15:50:00,54.8,19.7,-100.00,West,271,8.9,15.2,25,0.00,,,-99.99,179.0,HOBO +U30 +Weather +,2013-04-24 21:50:00,
2013-04-24 15:55:00,54.9,20.0,-100.00,WNW,289,6.3,18.1,25,0.00,,,-99.99,742.0,HOBO +U30 +Weather +,2013-04-24 21:55:00,
2013-04-24 16:00:00,55.8,20.9,-100.00,WSW,256,5.1,8.5,25,0.00,,,-99.99,339.0,HOBO +U30 +Weather +,2013-04-24 22:00:00,
2013-04-24 16:05:00,55.3,20.2,-100.00,WSW,250,5.6,13.4,25,0.00,,,-99.99,501.0,HOBO +U30 +Weather +,2013-04-24 22:05:00,
2013-04-24 16:10:00,56.8,21.0,-100.00,West,270,4.5,10.1,24,0.00,,,-99.99,489.0,HOBO +U30 +Weather +,2013-04-24 22:10:00,
2013-04-24 16:15:00,56.2,20.9,-100.00,WSW,251,6.7,12.3,25,0.00,,,-99.99,736.0,HOBO +U30 +Weather +,2013-04-24 22:15:00,
2013-04-24 16:20:00,56.1,21.1,-100.00,SW,218,11.9,18.1,25,0.00,,,-99.99,672.0,HOBO +U30 +Weather +,2013-04-24 22:20:00,
2013-04-24 16:25:00,55.8,21.1,-100.00,SW,233,9.6,16.3,25,0.00,,,-99.99,592.0,HOBO +U30 +Weather +,2013-04-24 22:25:00,
2013-04-24 16:30:00,56.3,21.3,-100.00,SW,233,7.4,13.4,25,0.00,,,-99.99,598.0,HOBO +U30 +Weather +,2013-04-24 22:30:00,
2013-04-24 16:35:00,57.3,22.2,-100.00,West,267,5.6,11.9,25,0.00,,,-99.99,564.0,HOBO +U30 +Weather +,2013-04-24 22:35:00,
2013-04-24 16:40:00,57.8,21.8,-100.00,SW,219,3.4,7.8,24,0.00,,,-99.99,567.0,HOBO +U30 +Weather +,2013-04-24 22:40:00,
2013-04-24 16:45:00,57.4,21.6,-100.00,SW,220,6.7,12.3,24,0.00,,,-99.99,484.0,HOBO +U30 +Weather +,2013-04-24 22:45:00,
2013-04-24 16:50:00,58.2,22.1,-100.00,WSW,244,4.5,10.1,24,0.00,,,-99.99,484.0,HOBO +U30 +Weather +,2013-04-24 22:50:00,
2013-04-24 16:55:00,57.3,21.6,-100.00,West,267,6.3,12.3,24,0.00,,,-99.99,513.0,HOBO +U30 +Weather +,2013-04-24 22:55:00,
2013-04-24 17:00:00,58.1,22.0,-100.00,WSW,241,5.6,12.3,24,0.00,,,-99.99,489.0,HOBO +U30 +Weather +,2013-04-24 23:00:00,
2013-04-24 17:05:00,56.2,21.1,-100.00,WSW,244,6.3,10.1,25,0.00,,,-99.99,426.0,HOBO +U30 +Weather +,2013-04-24 23:05:00,
2013-04-24 17:10:00,56.9,21.8,-100.00,SW,234,6.3,10.7,25,0.00,,,-99.99,494.0,HOBO +U30 +Weather +,2013-04-24 23:10:00,
2013-04-24 17:15:00,57.0,21.6,-100.00,WSW,248,5.6,12.3,25,0.00,,,-99.99,254.0,HOBO +U30 +Weather +,2013-04-24 23:15:00,
2013-04-24 17:20:00,57.1,21.7,-100.00,WSW,237,3.4,7.8,25,0.00,,,-99.99,224.0,HOBO +U30 +Weather +,2013-04-24 23:20:00,
2013-04-24 17:25:00,58.6,22.6,-100.00,SW,225,2.2,5.1,24,0.00,,,-99.99,264.0,HOBO +U30 +Weather +,2013-04-24 23:25:00,
2013-04-24 17:30:00,58.4,22.0,-100.00,SSW,198,4.0,7.4,24,0.00,,,-99.99,449.0,HOBO +U30 +Weather +,2013-04-24 23:30:00,
2013-04-24 17:35:00,57.2,21.1,-100.00,WSW,253,6.3,11.2,24,0.00,,,-99.99,427.0,HOBO +U30 +Weather +,2013-04-24 23:35:00,
2013-04-24 17:40:00,58.7,22.0,-100.00,South,185,2.9,7.4,23,0.00,,,-99.99,419.0,HOBO +U30 +Weather +,2013-04-24 23:40:00,
2013-04-24 17:45:00,58.7,22.5,-100.00,South,190,2.9,6.3,24,0.00,,,-99.99,323.0,HOBO +U30 +Weather +,2013-04-24 23:45:00,
2013-04-24 17:50:00,60.3,22.4,-100.00,SE,131,0.7,4.0,23,0.00,,,-99.99,214.0,HOBO +U30 +Weather +,2013-04-24 23:50:00,
2013-04-24 17:55:00,57.2,21.3,-100.00,East,80,2.9,5.1,24,0.00,,,-99.99,324.0,HOBO +U30 +Weather +,2013-04-24 23:55:00,
2013-04-24 18:00:00,58.5,22.1,-100.00,ENE,69,1.8,3.4,24,0.00,,,-99.99,339.0,HOBO +U30 +Weather +,2013-04-25 00:00:00,
2013-04-24 18:05:00,58.5,21.8,-100.00,North,0,2.9,5.1,23,0.00,,,-99.99,293.0,HOBO +U30 +Weather +,2013-04-25 00:05:00,
2013-04-24 18:10:00,58.5,21.7,-100.00,SSE,156,3.4,7.4,23,0.00,,,-99.99,264.0,HOBO +U30 +Weather +,2013-04-25 00:10:00,
2013-04-24 18:15:00,59.1,22.1,-100.00,SE,145,3.4,6.7,23,0.00,,,-99.99,191.0,HOBO +U30 +Weather +,2013-04-25 00:15:00,
2013-04-24 18:20:00,57.9,21.5,-100.00,ENE,65,4.0,7.4,24,0.00,,,-99.99,118.0,HOBO +U30 +Weather +,2013-04-25 00:20:00,
2013-04-24 18:25:00,58.2,19.3,-100.00,SSW,198,6.7,13.0,21,0.00,,,-99.99,94.0,HOBO +U30 +Weather +,2013-04-25 00:25:00,
2013-04-24 18:30:00,58.6,19.7,-100.00,WSW,246,7.8,13.0,21,0.00,,,-99.99,114.0,HOBO +U30 +Weather +,2013-04-25 00:30:00,
2013-04-24 18:35:00,58.7,19.3,-100.00,WSW,241,6.3,14.1,21,0.00,,,-99.99,108.0,HOBO +U30 +Weather +,2013-04-25 00:35:00,
2013-04-24 18:40:00,58.6,19.6,-100.00,SW,230,8.5,14.5,21,0.00,,,-99.99,93.0,HOBO +U30 +Weather +,2013-04-25 00:40:00,
2013-04-24 18:45:00,58.1,20.0,-100.00,SW,216,10.7,17.0,22,0.00,,,-99.99,74.0,HOBO +U30 +Weather +,2013-04-25 00:45:00,
2013-04-24 18:50:00,57.8,20.4,-100.00,SW,218,9.6,13.0,23,0.00,,,-99.99,71.0,HOBO +U30 +Weather +,2013-04-25 00:50:00,
2013-04-24 18:55:00,57.8,21.0,-100.00,SW,215,9.6,14.1,23,0.00,,,-99.99,72.0,HOBO +U30 +Weather +,2013-04-25 00:55:00,
2013-04-24 19:00:00,57.8,21.4,-100.00,SSW,197,7.8,13.4,24,0.00,,,-99.99,68.0,HOBO +U30 +Weather +,2013-04-25 01:00:00,
2013-04-24 19:05:00,57.3,21.3,-100.00,SSW,197,10.1,15.2,24,0.00,,,-99.99,78.0,HOBO +U30 +Weather +,2013-04-25 01:05:00,
2013-04-24 19:10:00,57.8,21.6,-100.00,SSW,205,10.1,15.9,24,0.00,,,-99.99,163.0,HOBO +U30 +Weather +,2013-04-25 01:10:00,
2013-04-24 19:15:00,57.7,21.2,-100.00,SW,215,8.9,15.9,24,0.00,,,-99.99,149.0,HOBO +U30 +Weather +,2013-04-25 01:15:00,
2013-04-24 19:20:00,57.8,21.8,-100.00,SSW,205,8.9,13.0,24,0.00,,,-99.99,134.0,HOBO +U30 +Weather +,2013-04-25 01:20:00,
2013-04-24 19:25:00,57.4,21.7,-100.00,SSW,208,8.9,16.3,24,0.00,,,-99.99,107.0,HOBO +U30 +Weather +,2013-04-25 01:25:00,
2013-04-24 19:30:00,56.9,21.8,-100.00,SSW,213,10.1,16.3,25,0.00,,,-99.99,58.0,HOBO +U30 +Weather +,2013-04-25 01:30:00,
2013-04-24 19:35:00,56.6,21.7,-100.00,SSW,209,11.9,18.1,25,0.00,,,-99.99,56.0,HOBO +U30 +Weather +,2013-04-25 01:35:00,
2013-04-24 19:40:00,56.5,21.9,-100.00,SSW,206,8.9,14.1,25,0.00,,,-99.99,34.0,HOBO +U30 +Weather +,2013-04-25 01:40:00,
2013-04-24 19:45:00,56.3,22.0,-100.00,SSW,198,5.6,10.1,26,0.00,,,-99.99,27.0,HOBO +U30 +Weather +,2013-04-25 01:45:00,
2013-04-24 19:50:00,56.2,21.6,-100.00,SSW,213,7.4,12.3,25,0.00,,,-99.99,18.0,HOBO +U30 +Weather +,2013-04-25 01:50:00,
2013-04-24 19:55:00,56.1,21.6,-100.00,SSW,206,7.8,11.9,25,0.00,,,-99.99,13.0,HOBO +U30 +Weather +,2013-04-25 01:55:00,
2013-04-24 20:00:00,56.0,21.6,-100.00,SSW,205,7.4,10.1,25,0.00,,,-99.99,9.0,HOBO +U30 +Weather +,2013-04-25 02:00:00,
2013-04-24 20:05:00,55.8,21.7,-100.00,SSW,202,6.7,10.7,26,0.00,,,-99.99,6.0,HOBO +U30 +Weather +,2013-04-25 02:05:00,
2013-04-24 20:10:00,55.7,21.9,-100.00,SSW,202,6.3,10.1,26,0.00,,,-99.99,2.0,HOBO +U30 +Weather +,2013-04-25 02:10:00,
2013-04-24 20:15:00,55.4,21.8,-100.00,SSW,208,5.1,8.5,26,0.00,,,-99.99,1.0,HOBO +U30 +Weather +,2013-04-25 02:15:00,
2013-04-24 20:20:00,55.3,22.1,-100.00,SSW,204,5.6,10.7,27,0.00,,,-99.99,1.0,HOBO +U30 +Weather +,2013-04-25 02:20:00,
2013-04-24 20:25:00,55.0,22.1,-100.00,SSW,202,5.1,8.9,27,0.00,,,-99.99,1.0,HOBO +U30 +Weather +,2013-04-25 02:25:00,
2013-04-24 20:30:00,55.0,21.7,-100.00,SSW,209,8.9,15.9,27,0.00,,,-99.99,1.0,HOBO +U30 +Weather +,2013-04-25 02:30:00,
2013-04-24 20:35:00,54.7,21.7,-100.00,SSW,209,7.4,13.0,27,0.00,,,-99.99,1.0,HOBO +U30 +Weather +,2013-04-25 02:35:00,
2013-04-24 20:40:00,54.2,22.0,-100.00,SSW,212,8.5,13.0,28,0.00,,,-99.99,1.0,HOBO +U30 +Weather +,2013-04-25 02:40:00,
2013-04-24 20:45:00,53.9,22.2,-100.00,SSW,208,7.4,11.9,28,0.00,,,-99.99,1.0,HOBO +U30 +Weather +,2013-04-25 02:45:00,
2013-04-24 20:50:00,53.6,22.4,-100.00,SSW,208,6.3,10.1,29,0.00,,,-99.99,1.0,HOBO +U30 +Weather +,2013-04-25 02:50:00,
2013-04-24 20:55:00,53.4,22.8,-100.00,SSW,212,7.4,13.0,30,0.00,,,-99.99,1.0,HOBO +U30 +Weather +,2013-04-25 02:55:00,
2013-04-24 21:00:00,53.1,23.1,-100.00,SW,219,5.6,10.1,30,0.00,,,-99.99,1.0,HOBO +U30 +Weather +,2013-04-25 03:00:00,
2013-04-24 21:05:00,52.9,23.4,-100.00,SW,220,5.6,9.6,31,0.00,,,-99.99,1.0,HOBO +U30 +Weather +,2013-04-25 03:05:00,
2013-04-24 21:10:00,52.6,23.8,-100.00,SW,219,6.3,10.1,32,0.00,,,-99.99,1.0,HOBO +U30 +Weather +,2013-04-25 03:10:00,
2013-04-24 21:15:00,52.4,23.9,-100.00,SW,232,6.7,11.2,32,0.00,,,-99.99,1.0,HOBO +U30 +Weather +,2013-04-25 03:15:00,
2013-04-24 21:20:00,52.2,24.1,-100.00,WSW,244,6.3,8.5,33,0.00,,,-99.99,1.0,HOBO +U30 +Weather +,2013-04-25 03:20:00,
2013-04-24 21:25:00,52.1,24.1,-100.00,WSW,244,5.6,9.6,33,0.00,,,-99.99,1.0,HOBO +U30 +Weather +,2013-04-25 03:25:00,
2013-04-24 21:30:00,52.0,24.4,-100.00,WSW,247,6.7,9.6,33,0.00,,,-99.99,1.0,HOBO +U30 +Weather +,2013-04-25 03:30:00,
2013-04-24 21:35:00,51.3,24.8,-100.00,West,260,5.1,8.5,35,0.00,,,-99.99,1.0,HOBO +U30 +Weather +,2013-04-25 03:35:00,
2013-04-24 21:40:00,50.7,25.4,-100.00,WSW,257,6.3,9.6,37,0.00,,,-99.99,1.0,HOBO +U30 +Weather +,2013-04-25 03:40:00,
2013-04-24 21:45:00,50.3,25.6,-100.00,WSW,257,6.7,10.1,37,0.00,,,-99.99,1.0,HOBO +U30 +Weather +,2013-04-25 03:45:00,
2013-04-24 21:50:00,50.4,25.6,-100.00,WSW,247,6.7,10.7,37,0.00,,,-99.99,1.0,HOBO +U30 +Weather +,2013-04-25 03:50:00,
2013-04-24 21:55:00,50.2,25.6,-100.00,WSW,246,7.8,10.7,37,0.00,,,-99.99,1.0,HOBO +U30 +Weather +,2013-04-25 03:55:00,
2013-04-24 22:00:00,50.1,25.4,-100.00,WSW,241,7.8,11.2,37,0.00,,,-99.99,1.0,HOBO +U30 +Weather +,2013-04-25 04:00:00,
2013-04-24 22:40:00,48.5,26.9,-100.00,WSW,250,9.6,14.1,42,0.00,,,-99.99,1.0,HOBO +U30 +Weather +,2013-04-25 04:40:00,
2013-04-24 22:45:00,48.3,26.9,-100.00,WSW,254,11.2,17.0,43,0.00,,,-99.99,1.0,HOBO +U30 +Weather +,2013-04-25 04:45:00,
2013-04-24 22:50:00,48.2,26.9,-100.00,WSW,251,9.6,13.4,43,0.00,,,-99.99,1.0,HOBO +U30 +Weather +,2013-04-25 04:50:00,
2013-04-24 22:55:00,48.1,26.9,-100.00,WSW,254,10.7,15.2,43,0.00,,,-99.99,1.0,HOBO +U30 +Weather +,2013-04-25 04:55:00,
2013-04-24 23:00:00,48.0,26.7,-100.00,WSW,250,11.2,17.0,43,0.00,,,-99.99,1.0,HOBO +U30 +Weather +,2013-04-25 05:00:00,
2013-04-24 23:05:00,47.8,26.7,-100.00,WSW,256,10.7,14.5,43,0.00,,,-99.99,1.0,HOBO +U30 +Weather +,2013-04-25 05:05:00,
2013-04-24 23:10:00,47.7,26.7,-100.00,WSW,251,10.7,16.3,43,0.00,,,-99.99,1.0,HOBO +U30 +Weather +,2013-04-25 05:10:00,
2013-04-24 23:15:00,47.6,26.6,-100.00,WSW,254,10.1,14.5,43,0.00,,,-99.99,1.0,HOBO +U30 +Weather +,2013-04-25 05:15:00,
2013-04-24 23:20:00,47.7,26.6,-100.00,WSW,251,10.7,15.9,43,0.00,,,-99.99,1.0,HOBO +U30 +Weather +,2013-04-25 05:20:00,
2013-04-24 23:25:00,47.5,26.5,-100.00,WSW,251,7.8,15.9,43,0.00,,,-99.99,1.0,HOBO +U30 +Weather +,2013-04-25 05:25:00,
2013-04-24 23:30:00,47.7,26.5,-100.00,WSW,247,9.6,14.1,43,0.00,,,-99.99,1.0,HOBO +U30 +Weather +,2013-04-25 05:30:00,
2013-04-24 23:35:00,47.7,26.3,-100.00,WSW,247,10.7,17.4,43,0.00,,,-99.99,1.0,HOBO +U30 +Weather +,2013-04-25 05:35:00,
2013-04-24 23:40:00,47.9,26.3,-100.00,WSW,244,10.1,15.2,42,0.00,,,-99.99,1.0,HOBO +U30 +Weather +,2013-04-25 05:40:00,
2013-04-24 23:45:00,48.1,26.1,-100.00,WSW,244,10.1,15.2,41,0.00,,,-99.99,1.0,HOBO +U30 +Weather +,2013-04-25 05:45:00,
2013-04-24 23:50:00,48.4,26.0,-100.00,WSW,246,11.2,16.3,41,0.00,,,-99.99,1.0,HOBO +U30 +Weather +,2013-04-25 05:50:00,
2013-04-24 23:55:00,48.2,25.8,-100.00,WSW,241,9.6,14.1,41,0.00,,,-99.99,1.0,HOBO +U30 +Weather +,2013-04-25 05:55:00,